sensor_id;sensor_type;location;lat;lon;timestamp;P1;durP1;ratioP1;P2;durP2;ratioP2
70332;SDS011;57747;43.548;-5.704;2023-06-10T00:01:58;7.07;;;2.47;;
70332;SDS011;57747;43.548;-5.704;2023-06-10T00:04:25;7.80;;;2.95;;
70332;SDS011;57747;43.548;-5.704;2023-06-10T00:06:50;11.35;;;3.38;;
70332;SDS011;57747;43.548;-5.704;2023-06-10T00:09:16;12.70;;;3.85;;
70332;SDS011;57747;43.548;-5.704;2023-06-10T00:11:44;18.95;;;4.85;;
70332;SDS011;57747;43.548;-5.704;2023-06-10T00:14:11;15.00;;;5.28;;
70332;SDS011;57747;43.548;-5.704;2023-06-10T00:16:40;16.33;;;4.63;;
70332;SDS011;57747;43.548;-5.704;2023-06-10T00:19:10;21.20;;;4.28;;
70332;SDS011;57747;43.548;-5.704;2023-06-10T00:21:38;15.25;;;4.15;;
70332;SDS011;57747;43.548;-5.704;2023-06-10T00:24:05;17.83;;;3.78;;
70332;SDS011;57747;43.548;-5.704;2023-06-10T00:26:33;15.98;;;4.20;;
70332;SDS011;57747;43.548;-5.704;2023-06-10T00:29:01;15.00;;;4.47;;
70332;SDS011;57747;43.548;-5.704;2023-06-10T00:31:27;17.48;;;3.88;;
70332;SDS011;57747;43.548;-5.704;2023-06-10T00:33:55;14.90;;;3.50;;
70332;SDS011;57747;43.548;-5.704;2023-06-10T00:36:23;7.68;;;2.95;;
70332;SDS011;57747;43.548;-5.704;2023-06-10T00:38:52;4.20;;;2.50;;
70332;SDS011;57747;43.548;-5.704;2023-06-10T00:41:17;6.15;;;2.90;;
70332;SDS011;57747;43.548;-5.704;2023-06-10T00:43:48;5.50;;;2.55;;
70332;SDS011;57747;43.548;-5.704;2023-06-10T00:46:13;8.23;;;2.70;;
70332;SDS011;57747;43.548;-5.704;2023-06-10T00:48:39;7.68;;;2.90;;
70332;SDS011;57747;43.548;-5.704;2023-06-10T00:51:05;8.38;;;2.53;;
70332;SDS011;57747;43.548;-5.704;2023-06-10T00:53:31;4.97;;;2.97;;
70332;SDS011;57747;43.548;-5.704;2023-06-10T00:55:57;5.95;;;2.80;;
70332;SDS011;57747;43.548;-5.704;2023-06-10T00:58:23;10.98;;;3.00;;
70332;SDS011;57747;43.548;-5.704;2023-06-10T01:00:49;10.02;;;2.63;;
70332;SDS011;57747;43.548;-5.704;2023-06-10T01:03:15;4.60;;;2.45;;
70332;SDS011;57747;43.548;-5.704;2023-06-10T01:05:42;9.30;;;3.20;;
70332;SDS011;57747;43.548;-5.704;2023-06-10T01:10:45;16.92;;;3.28;;
70332;SDS011;57747;43.548;-5.704;2023-06-10T01:13:14;10.80;;;3.87;;
70332;SDS011;57747;43.548;-5.704;2023-06-10T01:15:41;19.05;;;3.90;;
70332;SDS011;57747;43.548;-5.704;2023-06-10T01:18:07;11.40;;;3.63;;
70332;SDS011;57747;43.548;-5.704;2023-06-10T01:20:40;8.15;;;3.03;;
70332;SDS011;57747;43.548;-5.704;2023-06-10T01:23:06;10.45;;;2.95;;
70332;SDS011;57747;43.548;-5.704;2023-06-10T01:25:32;6.60;;;3.05;;
70332;SDS011;57747;43.548;-5.704;2023-06-10T01:28:14;7.07;;;3.03;;
70332;SDS011;57747;43.548;-5.704;2023-06-10T01:33:27;4.32;;;2.50;;
70332;SDS011;57747;43.548;-5.704;2023-06-10T01:35:53;4.57;;;2.60;;
70332;SDS011;57747;43.548;-5.704;2023-06-10T01:38:20;4.40;;;2.38;;
70332;SDS011;57747;43.548;-5.704;2023-06-10T01:40:46;5.93;;;2.38;;
70332;SDS011;57747;43.548;-5.704;2023-06-10T01:43:13;3.78;;;2.38;;
70332;SDS011;57747;43.548;-5.704;2023-06-10T01:45:38;5.00;;;2.58;;
70332;SDS011;57747;43.548;-5.704;2023-06-10T01:48:05;4.30;;;2.42;;
70332;SDS011;57747;43.548;-5.704;2023-06-10T01:50:34;3.58;;;2.25;;
70332;SDS011;57747;43.548;-5.704;2023-06-10T01:52:59;4.65;;;2.40;;
70332;SDS011;57747;43.548;-5.704;2023-06-10T01:55:24;3.47;;;2.10;;
70332;SDS011;57747;43.548;-5.704;2023-06-10T01:57:50;5.75;;;2.38;;
70332;SDS011;57747;43.548;-5.704;2023-06-10T02:00:17;6.00;;;2.55;;
70332;SDS011;57747;43.548;-5.704;2023-06-10T02:02:43;9.55;;;2.67;;
70332;SDS011;57747;43.548;-5.704;2023-06-10T02:05:08;4.75;;;2.30;;
70332;SDS011;57747;43.548;-5.704;2023-06-10T02:07:33;5.70;;;2.30;;
70332;SDS011;57747;43.548;-5.704;2023-06-10T02:09:59;5.72;;;2.10;;
70332;SDS011;57747;43.548;-5.704;2023-06-10T02:12:25;9.35;;;2.40;;
70332;SDS011;57747;43.548;-5.704;2023-06-10T02:14:50;5.32;;;2.17;;
70332;SDS011;57747;43.548;-5.704;2023-06-10T02:17:18;7.25;;;2.13;;
70332;SDS011;57747;43.548;-5.704;2023-06-10T02:19:44;4.72;;;2.53;;
70332;SDS011;57747;43.548;-5.704;2023-06-10T02:22:12;4.47;;;2.50;;
70332;SDS011;57747;43.548;-5.704;2023-06-10T02:24:37;7.05;;;2.88;;
70332;SDS011;57747;43.548;-5.704;2023-06-10T02:27:06;4.47;;;2.28;;
70332;SDS011;57747;43.548;-5.704;2023-06-10T02:29:33;4.43;;;2.28;;
70332;SDS011;57747;43.548;-5.704;2023-06-10T02:31:58;4.53;;;2.45;;
70332;SDS011;57747;43.548;-5.704;2023-06-10T02:34:24;3.83;;;2.38;;
70332;SDS011;57747;43.548;-5.704;2023-06-10T02:36:49;3.90;;;2.20;;
70332;SDS011;57747;43.548;-5.704;2023-06-10T02:39:16;2.45;;;1.85;;
70332;SDS011;57747;43.548;-5.704;2023-06-10T02:41:42;5.35;;;2.25;;
70332;SDS011;57747;43.548;-5.704;2023-06-10T02:44:07;3.03;;;2.25;;
70332;SDS011;57747;43.548;-5.704;2023-06-10T02:46:32;4.72;;;2.05;;
70332;SDS011;57747;43.548;-5.704;2023-06-10T02:48:58;6.40;;;2.13;;
70332;SDS011;57747;43.548;-5.704;2023-06-10T02:51:26;3.20;;;1.88;;
70332;SDS011;57747;43.548;-5.704;2023-06-10T02:53:52;5.22;;;1.92;;
70332;SDS011;57747;43.548;-5.704;2023-06-10T02:56:18;5.20;;;2.13;;
70332;SDS011;57747;43.548;-5.704;2023-06-10T02:58:43;8.00;;;2.00;;
70332;SDS011;57747;43.548;-5.704;2023-06-10T03:01:09;6.28;;;2.00;;
70332;SDS011;57747;43.548;-5.704;2023-06-10T03:03:35;5.40;;;1.90;;
70332;SDS011;57747;43.548;-5.704;2023-06-10T03:06:02;5.82;;;1.85;;
70332;SDS011;57747;43.548;-5.704;2023-06-10T03:08:28;5.15;;;2.38;;
70332;SDS011;57747;43.548;-5.704;2023-06-10T03:10:53;3.13;;;1.83;;
70332;SDS011;57747;43.548;-5.704;2023-06-10T03:13:18;2.35;;;1.65;;
70332;SDS011;57747;43.548;-5.704;2023-06-10T03:15:44;2.30;;;1.80;;
70332;SDS011;57747;43.548;-5.704;2023-06-10T03:18:11;2.67;;;1.80;;
70332;SDS011;57747;43.548;-5.704;2023-06-10T03:20:36;6.38;;;1.73;;
70332;SDS011;57747;43.548;-5.704;2023-06-10T03:23:04;3.28;;;1.95;;
70332;SDS011;57747;43.548;-5.704;2023-06-10T03:25:30;6.80;;;1.95;;
70332;SDS011;57747;43.548;-5.704;2023-06-10T03:27:55;10.02;;;2.00;;
70332;SDS011;57747;43.548;-5.704;2023-06-10T03:30:21;5.60;;;1.95;;
70332;SDS011;57747;43.548;-5.704;2023-06-10T03:32:46;5.10;;;2.30;;
70332;SDS011;57747;43.548;-5.704;2023-06-10T03:35:12;5.43;;;2.67;;
70332;SDS011;57747;43.548;-5.704;2023-06-10T03:37:37;2.88;;;2.10;;
70332;SDS011;57747;43.548;-5.704;2023-06-10T03:40:03;4.03;;;2.28;;
70332;SDS011;57747;43.548;-5.704;2023-06-10T03:42:28;3.83;;;2.50;;
70332;SDS011;57747;43.548;-5.704;2023-06-10T03:44:54;3.67;;;2.60;;
70332;SDS011;57747;43.548;-5.704;2023-06-10T03:47:20;4.93;;;3.10;;
70332;SDS011;57747;43.548;-5.704;2023-06-10T03:49:47;8.88;;;4.03;;
70332;SDS011;57747;43.548;-5.704;2023-06-10T03:52:12;9.05;;;4.18;;
70332;SDS011;57747;43.548;-5.704;2023-06-10T03:54:38;11.25;;;4.22;;
70332;SDS011;57747;43.548;-5.704;2023-06-10T03:57:03;9.48;;;3.63;;
70332;SDS011;57747;43.548;-5.704;2023-06-10T03:59:29;7.20;;;3.90;;
70332;SDS011;57747;43.548;-5.704;2023-06-10T04:01:54;5.18;;;3.90;;
70332;SDS011;57747;43.548;-5.704;2023-06-10T04:04:20;12.55;;;4.07;;
70332;SDS011;57747;43.548;-5.704;2023-06-10T04:06:47;7.60;;;4.25;;
70332;SDS011;57747;43.548;-5.704;2023-06-10T04:09:14;8.95;;;4.07;;
70332;SDS011;57747;43.548;-5.704;2023-06-10T04:11:41;4.90;;;3.28;;
70332;SDS011;57747;43.548;-5.704;2023-06-10T04:14:06;6.40;;;3.50;;
70332;SDS011;57747;43.548;-5.704;2023-06-10T04:16:32;9.65;;;3.70;;
70332;SDS011;57747;43.548;-5.704;2023-06-10T04:18:58;10.07;;;3.90;;
70332;SDS011;57747;43.548;-5.704;2023-06-10T04:21:27;5.68;;;3.85;;
70332;SDS011;57747;43.548;-5.704;2023-06-10T04:23:52;9.32;;;3.97;;
70332;SDS011;57747;43.548;-5.704;2023-06-10T04:26:18;7.30;;;3.67;;
70332;SDS011;57747;43.548;-5.704;2023-06-10T04:28:43;7.65;;;4.38;;
70332;SDS011;57747;43.548;-5.704;2023-06-10T04:31:09;5.95;;;4.30;;
70332;SDS011;57747;43.548;-5.704;2023-06-10T04:33:35;10.95;;;4.38;;
70332;SDS011;57747;43.548;-5.704;2023-06-10T04:36:00;6.97;;;4.68;;
70332;SDS011;57747;43.548;-5.704;2023-06-10T04:38:26;14.57;;;5.15;;
70332;SDS011;57747;43.548;-5.704;2023-06-10T04:40:52;10.38;;;5.55;;
70332;SDS011;57747;43.548;-5.704;2023-06-10T04:43:18;14.90;;;5.45;;
70332;SDS011;57747;43.548;-5.704;2023-06-10T04:45:43;12.13;;;4.78;;
70332;SDS011;57747;43.548;-5.704;2023-06-10T04:48:10;9.23;;;4.88;;
70332;SDS011;57747;43.548;-5.704;2023-06-10T04:50:36;9.90;;;5.10;;
70332;SDS011;57747;43.548;-5.704;2023-06-10T04:53:01;12.65;;;5.45;;
70332;SDS011;57747;43.548;-5.704;2023-06-10T04:55:27;12.23;;;5.32;;
70332;SDS011;57747;43.548;-5.704;2023-06-10T04:57:52;17.13;;;5.00;;
70332;SDS011;57747;43.548;-5.704;2023-06-10T05:00:18;14.32;;;6.13;;
70332;SDS011;57747;43.548;-5.704;2023-06-10T05:02:43;17.30;;;6.78;;
70332;SDS011;57747;43.548;-5.704;2023-06-10T05:05:09;9.10;;;5.07;;
70332;SDS011;57747;43.548;-5.704;2023-06-10T05:07:35;12.00;;;5.85;;
70332;SDS011;57747;43.548;-5.704;2023-06-10T05:10:00;12.73;;;5.97;;
70332;SDS011;57747;43.548;-5.704;2023-06-10T05:12:26;10.32;;;5.43;;
70332;SDS011;57747;43.548;-5.704;2023-06-10T05:14:52;10.07;;;5.60;;
70332;SDS011;57747;43.548;-5.704;2023-06-10T05:17:17;16.77;;;5.25;;
70332;SDS011;57747;43.548;-5.704;2023-06-10T05:19:43;18.27;;;5.93;;
70332;SDS011;57747;43.548;-5.704;2023-06-10T05:22:08;12.88;;;5.38;;
70332;SDS011;57747;43.548;-5.704;2023-06-10T05:24:34;22.95;;;6.20;;
70332;SDS011;57747;43.548;-5.704;2023-06-10T05:26:59;18.48;;;5.57;;
70332;SDS011;57747;43.548;-5.704;2023-06-10T05:29:25;11.43;;;5.50;;
70332;SDS011;57747;43.548;-5.704;2023-06-10T05:31:51;14.07;;;5.97;;
70332;SDS011;57747;43.548;-5.704;2023-06-10T05:34:19;13.32;;;5.97;;
70332;SDS011;57747;43.548;-5.704;2023-06-10T05:36:44;18.70;;;6.63;;
70332;SDS011;57747;43.548;-5.704;2023-06-10T05:39:09;11.65;;;6.15;;
70332;SDS011;57747;43.548;-5.704;2023-06-10T05:41:35;12.70;;;5.10;;
70332;SDS011;57747;43.548;-5.704;2023-06-10T05:44:01;9.95;;;5.20;;
70332;SDS011;57747;43.548;-5.704;2023-06-10T05:46:26;11.45;;;6.00;;
70332;SDS011;57747;43.548;-5.704;2023-06-10T05:48:51;16.48;;;6.10;;
70332;SDS011;57747;43.548;-5.704;2023-06-10T05:51:17;13.77;;;8.13;;
70332;SDS011;57747;43.548;-5.704;2023-06-10T05:53:42;19.42;;;8.57;;
70332;SDS011;57747;43.548;-5.704;2023-06-10T05:56:08;15.32;;;7.78;;
70332;SDS011;57747;43.548;-5.704;2023-06-10T05:58:33;13.18;;;7.55;;
70332;SDS011;57747;43.548;-5.704;2023-06-10T06:00:58;12.65;;;7.70;;
70332;SDS011;57747;43.548;-5.704;2023-06-10T06:03:25;14.25;;;7.80;;
70332;SDS011;57747;43.548;-5.704;2023-06-10T06:05:50;9.50;;;6.68;;
70332;SDS011;57747;43.548;-5.704;2023-06-10T06:08:15;12.40;;;5.78;;
70332;SDS011;57747;43.548;-5.704;2023-06-10T06:10:44;10.93;;;5.95;;
70332;SDS011;57747;43.548;-5.704;2023-06-10T06:13:09;9.70;;;5.68;;
70332;SDS011;57747;43.548;-5.704;2023-06-10T06:15:35;9.10;;;5.15;;
70332;SDS011;57747;43.548;-5.704;2023-06-10T06:18:00;9.15;;;4.90;;
70332;SDS011;57747;43.548;-5.704;2023-06-10T06:20:25;8.40;;;4.90;;
70332;SDS011;57747;43.548;-5.704;2023-06-10T06:22:51;9.60;;;4.85;;
70332;SDS011;57747;43.548;-5.704;2023-06-10T06:25:16;9.73;;;4.72;;
70332;SDS011;57747;43.548;-5.704;2023-06-10T06:27:42;15.38;;;5.78;;
70332;SDS011;57747;43.548;-5.704;2023-06-10T06:30:07;9.82;;;6.15;;
70332;SDS011;57747;43.548;-5.704;2023-06-10T06:32:32;12.55;;;7.03;;
70332;SDS011;57747;43.548;-5.704;2023-06-10T06:34:58;14.70;;;8.63;;
70332;SDS011;57747;43.548;-5.704;2023-06-10T06:37:24;9.40;;;5.55;;
70332;SDS011;57747;43.548;-5.704;2023-06-10T06:39:50;9.48;;;4.55;;
70332;SDS011;57747;43.548;-5.704;2023-06-10T06:42:15;7.55;;;4.00;;
70332;SDS011;57747;43.548;-5.704;2023-06-10T06:44:44;6.18;;;3.60;;
70332;SDS011;57747;43.548;-5.704;2023-06-10T06:47:09;7.95;;;3.33;;
70332;SDS011;57747;43.548;-5.704;2023-06-10T06:49:35;5.25;;;3.55;;
70332;SDS011;57747;43.548;-5.704;2023-06-10T06:52:01;5.45;;;3.13;;
70332;SDS011;57747;43.548;-5.704;2023-06-10T06:54:26;9.63;;;5.75;;
70332;SDS011;57747;43.548;-5.704;2023-06-10T06:56:51;9.75;;;5.13;;
70332;SDS011;57747;43.548;-5.704;2023-06-10T06:59:17;15.75;;;6.43;;
70332;SDS011;57747;43.548;-5.704;2023-06-10T07:01:44;12.57;;;7.43;;
70332;SDS011;57747;43.548;-5.704;2023-06-10T07:04:09;12.13;;;7.57;;
70332;SDS011;57747;43.548;-5.704;2023-06-10T07:06:35;11.38;;;6.97;;
70332;SDS011;57747;43.548;-5.704;2023-06-10T07:09:01;11.68;;;7.03;;
70332;SDS011;57747;43.548;-5.704;2023-06-10T07:11:26;13.43;;;7.03;;
70332;SDS011;57747;43.548;-5.704;2023-06-10T07:13:52;16.05;;;6.57;;
70332;SDS011;57747;43.548;-5.704;2023-06-10T07:16:17;8.48;;;5.47;;
70332;SDS011;57747;43.548;-5.704;2023-06-10T07:18:45;10.45;;;4.95;;
70332;SDS011;57747;43.548;-5.704;2023-06-10T07:21:11;11.55;;;4.82;;
70332;SDS011;57747;43.548;-5.704;2023-06-10T07:23:36;8.23;;;3.63;;
70332;SDS011;57747;43.548;-5.704;2023-06-10T07:26:01;6.03;;;3.15;;
70332;SDS011;57747;43.548;-5.704;2023-06-10T07:28:27;5.90;;;3.42;;
70332;SDS011;57747;43.548;-5.704;2023-06-10T07:30:52;6.18;;;2.67;;
70332;SDS011;57747;43.548;-5.704;2023-06-10T07:33:18;4.85;;;2.55;;
70332;SDS011;57747;43.548;-5.704;2023-06-10T07:35:43;4.88;;;2.72;;
70332;SDS011;57747;43.548;-5.704;2023-06-10T07:38:08;4.78;;;2.72;;
70332;SDS011;57747;43.548;-5.704;2023-06-10T07:40:34;3.05;;;2.13;;
70332;SDS011;57747;43.548;-5.704;2023-06-10T07:42:59;5.07;;;2.17;;
70332;SDS011;57747;43.548;-5.704;2023-06-10T07:45:25;2.53;;;1.70;;
70332;SDS011;57747;43.548;-5.704;2023-06-10T07:47:50;9.38;;;2.72;;
70332;SDS011;57747;43.548;-5.704;2023-06-10T07:50:16;4.43;;;1.83;;
70332;SDS011;57747;43.548;-5.704;2023-06-10T07:52:41;5.53;;;1.75;;
70332;SDS011;57747;43.548;-5.704;2023-06-10T07:55:09;4.25;;;1.50;;
70332;SDS011;57747;43.548;-5.704;2023-06-10T07:57:34;6.20;;;1.80;;
70332;SDS011;57747;43.548;-5.704;2023-06-10T08:00:02;5.47;;;2.38;;
70332;SDS011;57747;43.548;-5.704;2023-06-10T08:02:29;5.97;;;2.28;;
70332;SDS011;57747;43.548;-5.704;2023-06-10T08:04:55;5.65;;;2.13;;
70332;SDS011;57747;43.548;-5.704;2023-06-10T08:07:20;9.68;;;6.20;;
70332;SDS011;57747;43.548;-5.704;2023-06-10T08:09:47;5.38;;;2.50;;
70332;SDS011;57747;43.548;-5.704;2023-06-10T08:12:12;3.58;;;2.00;;
70332;SDS011;57747;43.548;-5.704;2023-06-10T08:14:37;8.25;;;2.25;;
70332;SDS011;57747;43.548;-5.704;2023-06-10T08:17:03;7.20;;;2.30;;
70332;SDS011;57747;43.548;-5.704;2023-06-10T08:19:32;8.27;;;2.22;;
70332;SDS011;57747;43.548;-5.704;2023-06-10T08:22:00;3.72;;;2.08;;
70332;SDS011;57747;43.548;-5.704;2023-06-10T08:24:26;3.33;;;2.10;;
70332;SDS011;57747;43.548;-5.704;2023-06-10T08:26:51;6.93;;;2.83;;
70332;SDS011;57747;43.548;-5.704;2023-06-10T08:29:20;7.68;;;3.40;;
70332;SDS011;57747;43.548;-5.704;2023-06-10T08:31:45;9.32;;;3.30;;
70332;SDS011;57747;43.548;-5.704;2023-06-10T08:34:11;8.60;;;2.80;;
70332;SDS011;57747;43.548;-5.704;2023-06-10T08:36:37;7.30;;;3.75;;
70332;SDS011;57747;43.548;-5.704;2023-06-10T08:39:02;8.57;;;2.83;;
70332;SDS011;57747;43.548;-5.704;2023-06-10T08:41:28;5.55;;;2.65;;
70332;SDS011;57747;43.548;-5.704;2023-06-10T08:46:19;5.03;;;2.50;;
70332;SDS011;57747;43.548;-5.704;2023-06-10T08:48:44;5.93;;;2.40;;
70332;SDS011;57747;43.548;-5.704;2023-06-10T08:51:15;7.65;;;2.53;;
70332;SDS011;57747;43.548;-5.704;2023-06-10T08:53:46;4.72;;;2.13;;
70332;SDS011;57747;43.548;-5.704;2023-06-10T08:56:13;2.80;;;1.40;;
70332;SDS011;57747;43.548;-5.704;2023-06-10T08:58:41;2.42;;;1.20;;
70332;SDS011;57747;43.548;-5.704;2023-06-10T09:01:08;2.90;;;1.52;;
70332;SDS011;57747;43.548;-5.704;2023-06-10T09:03:39;2.40;;;1.02;;
70332;SDS011;57747;43.548;-5.704;2023-06-10T09:06:05;6.43;;;1.60;;
70332;SDS011;57747;43.548;-5.704;2023-06-10T09:08:31;3.95;;;1.30;;
70332;SDS011;57747;43.548;-5.704;2023-06-10T09:11:00;3.08;;;1.33;;
70332;SDS011;57747;43.548;-5.704;2023-06-10T09:13:26;4.57;;;1.25;;
70332;SDS011;57747;43.548;-5.704;2023-06-10T09:15:51;3.55;;;1.23;;
70332;SDS011;57747;43.548;-5.704;2023-06-10T09:18:19;3.25;;;1.38;;
70332;SDS011;57747;43.548;-5.704;2023-06-10T09:20:45;4.50;;;2.25;;
70332;SDS011;57747;43.548;-5.704;2023-06-10T09:23:13;2.13;;;1.30;;
70332;SDS011;57747;43.548;-5.704;2023-06-10T09:25:40;3.90;;;1.30;;
70332;SDS011;57747;43.548;-5.704;2023-06-10T09:28:12;2.30;;;1.27;;
70332;SDS011;57747;43.548;-5.704;2023-06-10T09:30:37;2.47;;;1.08;;
70332;SDS011;57747;43.548;-5.704;2023-06-10T09:33:09;1.98;;;1.17;;
70332;SDS011;57747;43.548;-5.704;2023-06-10T09:35:35;4.82;;;1.38;;
70332;SDS011;57747;43.548;-5.704;2023-06-10T09:38:01;2.70;;;1.13;;
70332;SDS011;57747;43.548;-5.704;2023-06-10T09:40:27;3.47;;;1.60;;
70332;SDS011;57747;43.548;-5.704;2023-06-10T09:42:53;3.28;;;1.40;;
70332;SDS011;57747;43.548;-5.704;2023-06-10T09:45:20;1.95;;;1.20;;
70332;SDS011;57747;43.548;-5.704;2023-06-10T09:47:46;4.88;;;1.30;;
70332;SDS011;57747;43.548;-5.704;2023-06-10T09:50:11;4.63;;;1.48;;
70332;SDS011;57747;43.548;-5.704;2023-06-10T09:52:37;6.18;;;2.10;;
70332;SDS011;57747;43.548;-5.704;2023-06-10T09:55:02;2.63;;;1.27;;
70332;SDS011;57747;43.548;-5.704;2023-06-10T09:57:31;4.00;;;1.65;;
70332;SDS011;57747;43.548;-5.704;2023-06-10T10:00:05;2.10;;;1.15;;
70332;SDS011;57747;43.548;-5.704;2023-06-10T10:02:31;2.17;;;1.27;;
70332;SDS011;57747;43.548;-5.704;2023-06-10T10:05:02;3.30;;;1.33;;
70332;SDS011;57747;43.548;-5.704;2023-06-10T10:07:27;6.03;;;1.20;;
70332;SDS011;57747;43.548;-5.704;2023-06-10T10:09:55;2.65;;;1.30;;
70332;SDS011;57747;43.548;-5.704;2023-06-10T10:12:21;4.20;;;1.48;;
70332;SDS011;57747;43.548;-5.704;2023-06-10T10:14:46;4.35;;;1.23;;
70332;SDS011;57747;43.548;-5.704;2023-06-10T10:17:13;4.05;;;1.50;;
70332;SDS011;57747;43.548;-5.704;2023-06-10T10:19:50;4.40;;;1.15;;
70332;SDS011;57747;43.548;-5.704;2023-06-10T10:22:25;3.53;;;1.10;;
70332;SDS011;57747;43.548;-5.704;2023-06-10T10:24:51;3.03;;;1.20;;
70332;SDS011;57747;43.548;-5.704;2023-06-10T10:27:30;3.80;;;1.02;;
70332;SDS011;57747;43.548;-5.704;2023-06-10T10:29:58;6.25;;;1.50;;
70332;SDS011;57747;43.548;-5.704;2023-06-10T10:32:35;2.83;;;1.17;;
70332;SDS011;57747;43.548;-5.704;2023-06-10T10:35:05;1.80;;;0.88;;
70332;SDS011;57747;43.548;-5.704;2023-06-10T10:37:32;3.90;;;1.58;;
70332;SDS011;57747;43.548;-5.704;2023-06-10T10:40:00;2.83;;;1.30;;
70332;SDS011;57747;43.548;-5.704;2023-06-10T10:42:31;2.85;;;1.10;;
70332;SDS011;57747;43.548;-5.704;2023-06-10T10:44:57;3.10;;;1.33;;
70332;SDS011;57747;43.548;-5.704;2023-06-10T10:47:23;2.55;;;1.20;;
70332;SDS011;57747;43.548;-5.704;2023-06-10T10:49:54;1.88;;;1.20;;
70332;SDS011;57747;43.548;-5.704;2023-06-10T10:52:26;2.65;;;1.25;;
70332;SDS011;57747;43.548;-5.704;2023-06-10T10:54:52;4.80;;;1.33;;
70332;SDS011;57747;43.548;-5.704;2023-06-10T10:57:22;6.03;;;1.23;;
70332;SDS011;57747;43.548;-5.704;2023-06-10T10:59:52;3.03;;;1.20;;
70332;SDS011;57747;43.548;-5.704;2023-06-10T11:05:08;2.13;;;1.15;;
70332;SDS011;57747;43.548;-5.704;2023-06-10T11:07:34;3.83;;;1.20;;
70332;SDS011;57747;43.548;-5.704;2023-06-10T11:12:43;2.83;;;1.00;;
70332;SDS011;57747;43.548;-5.704;2023-06-10T11:15:13;3.53;;;0.98;;
70332;SDS011;57747;43.548;-5.704;2023-06-10T11:23:10;2.70;;;0.98;;
70332;SDS011;57747;43.548;-5.704;2023-06-10T11:25:38;4.40;;;1.10;;
70332;SDS011;57747;43.548;-5.704;2023-06-10T11:28:27;2.75;;;0.80;;
70332;SDS011;57747;43.548;-5.704;2023-06-10T11:31:02;3.65;;;0.52;;
70332;SDS011;57747;43.548;-5.704;2023-06-10T11:33:27;2.65;;;1.20;;
70332;SDS011;57747;43.548;-5.704;2023-06-10T11:35:53;2.55;;;0.95;;
70332;SDS011;57747;43.548;-5.704;2023-06-10T11:38:19;2.63;;;0.82;;
70332;SDS011;57747;43.548;-5.704;2023-06-10T11:40:50;2.45;;;0.80;;
70332;SDS011;57747;43.548;-5.704;2023-06-10T11:43:19;1.23;;;0.70;;
70332;SDS011;57747;43.548;-5.704;2023-06-10T11:45:53;3.83;;;0.77;;
70332;SDS011;57747;43.548;-5.704;2023-06-10T11:48:18;4.43;;;0.70;;
70332;SDS011;57747;43.548;-5.704;2023-06-10T11:50:44;4.47;;;0.80;;
70332;SDS011;57747;43.548;-5.704;2023-06-10T11:53:09;1.85;;;0.70;;
70332;SDS011;57747;43.548;-5.704;2023-06-10T11:55:45;3.30;;;0.63;;
70332;SDS011;57747;43.548;-5.704;2023-06-10T12:00:49;2.33;;;0.70;;
70332;SDS011;57747;43.548;-5.704;2023-06-10T12:03:14;2.10;;;0.90;;
70332;SDS011;57747;43.548;-5.704;2023-06-10T12:05:40;1.33;;;0.57;;
70332;SDS011;57747;43.548;-5.704;2023-06-10T12:08:11;4.82;;;0.80;;
70332;SDS011;57747;43.548;-5.704;2023-06-10T12:10:43;5.10;;;0.88;;
70332;SDS011;57747;43.548;-5.704;2023-06-10T12:13:09;1.83;;;0.60;;
70332;SDS011;57747;43.548;-5.704;2023-06-10T12:15:34;3.53;;;0.75;;
70332;SDS011;57747;43.548;-5.704;2023-06-10T12:18:00;2.28;;;0.70;;
70332;SDS011;57747;43.548;-5.704;2023-06-10T12:20:26;1.70;;;0.80;;
70332;SDS011;57747;43.548;-5.704;2023-06-10T12:22:55;1.90;;;0.70;;
70332;SDS011;57747;43.548;-5.704;2023-06-10T12:25:24;1.60;;;0.63;;
70332;SDS011;57747;43.548;-5.704;2023-06-10T12:27:53;2.13;;;1.05;;
70332;SDS011;57747;43.548;-5.704;2023-06-10T12:30:22;2.05;;;0.63;;
70332;SDS011;57747;43.548;-5.704;2023-06-10T12:32:51;2.97;;;0.90;;
70332;SDS011;57747;43.548;-5.704;2023-06-10T12:35:18;3.60;;;0.73;;
70332;SDS011;57747;43.548;-5.704;2023-06-10T12:37:55;3.20;;;0.88;;
70332;SDS011;57747;43.548;-5.704;2023-06-10T12:40:29;1.60;;;0.52;;
70332;SDS011;57747;43.548;-5.704;2023-06-10T12:42:57;2.63;;;0.77;;
70332;SDS011;57747;43.548;-5.704;2023-06-10T12:45:30;4.20;;;0.70;;
70332;SDS011;57747;43.548;-5.704;2023-06-10T12:48:05;1.67;;;0.60;;
70332;SDS011;57747;43.548;-5.704;2023-06-10T12:50:32;1.73;;;0.82;;
70332;SDS011;57747;43.548;-5.704;2023-06-10T12:52:59;2.92;;;0.80;;
70332;SDS011;57747;43.548;-5.704;2023-06-10T12:55:24;6.78;;;0.90;;
70332;SDS011;57747;43.548;-5.704;2023-06-10T12:57:50;2.15;;;0.65;;
70332;SDS011;57747;43.548;-5.704;2023-06-10T13:00:16;0.85;;;0.55;;
70332;SDS011;57747;43.548;-5.704;2023-06-10T13:02:41;3.72;;;0.63;;
70332;SDS011;57747;43.548;-5.704;2023-06-10T13:05:07;1.63;;;0.55;;
70332;SDS011;57747;43.548;-5.704;2023-06-10T13:07:32;2.13;;;0.88;;
70332;SDS011;57747;43.548;-5.704;2023-06-10T13:10:01;1.35;;;0.60;;
70332;SDS011;57747;43.548;-5.704;2023-06-10T13:12:27;4.55;;;0.90;;
70332;SDS011;57747;43.548;-5.704;2023-06-10T13:14:58;2.58;;;0.73;;
70332;SDS011;57747;43.548;-5.704;2023-06-10T13:17:23;1.52;;;0.52;;
70332;SDS011;57747;43.548;-5.704;2023-06-10T13:19:49;1.33;;;0.70;;
70332;SDS011;57747;43.548;-5.704;2023-06-10T13:22:15;1.00;;;0.60;;
70332;SDS011;57747;43.548;-5.704;2023-06-10T13:24:40;2.50;;;0.60;;
70332;SDS011;57747;43.548;-5.704;2023-06-10T13:27:08;3.03;;;0.88;;
70332;SDS011;57747;43.548;-5.704;2023-06-10T13:29:34;1.98;;;0.90;;
70332;SDS011;57747;43.548;-5.704;2023-06-10T13:31:59;1.30;;;0.63;;
70332;SDS011;57747;43.548;-5.704;2023-06-10T13:34:25;1.38;;;0.80;;
70332;SDS011;57747;43.548;-5.704;2023-06-10T13:36:50;3.13;;;0.85;;
70332;SDS011;57747;43.548;-5.704;2023-06-10T13:39:15;1.25;;;0.77;;
70332;SDS011;57747;43.548;-5.704;2023-06-10T13:41:41;0.75;;;0.50;;
70332;SDS011;57747;43.548;-5.704;2023-06-10T13:44:07;1.98;;;0.60;;
70332;SDS011;57747;43.548;-5.704;2023-06-10T13:46:32;2.72;;;0.80;;
70332;SDS011;57747;43.548;-5.704;2023-06-10T13:48:57;1.85;;;0.80;;
70332;SDS011;57747;43.548;-5.704;2023-06-10T13:51:23;1.02;;;0.50;;
70332;SDS011;57747;43.548;-5.704;2023-06-10T13:53:48;2.22;;;0.52;;
70332;SDS011;57747;43.548;-5.704;2023-06-10T13:56:15;2.67;;;0.90;;
70332;SDS011;57747;43.548;-5.704;2023-06-10T13:58:40;2.08;;;0.90;;
70332;SDS011;57747;43.548;-5.704;2023-06-10T14:01:07;3.28;;;1.05;;
70332;SDS011;57747;43.548;-5.704;2023-06-10T14:03:33;2.33;;;0.82;;
70332;SDS011;57747;43.548;-5.704;2023-06-10T14:05:58;1.48;;;0.60;;
70332;SDS011;57747;43.548;-5.704;2023-06-10T14:08:23;4.25;;;0.77;;
70332;SDS011;57747;43.548;-5.704;2023-06-10T14:10:49;2.88;;;0.85;;
70332;SDS011;57747;43.548;-5.704;2023-06-10T14:13:16;4.18;;;0.80;;
70332;SDS011;57747;43.548;-5.704;2023-06-10T14:15:42;4.43;;;1.27;;
70332;SDS011;57747;43.548;-5.704;2023-06-10T14:18:07;1.40;;;0.55;;
70332;SDS011;57747;43.548;-5.704;2023-06-10T14:20:33;1.55;;;0.68;;
70332;SDS011;57747;43.548;-5.704;2023-06-10T14:22:58;3.05;;;1.05;;
70332;SDS011;57747;43.548;-5.704;2023-06-10T14:25:24;2.17;;;1.00;;
70332;SDS011;57747;43.548;-5.704;2023-06-10T14:27:50;1.27;;;0.73;;
70332;SDS011;57747;43.548;-5.704;2023-06-10T14:30:15;2.58;;;1.27;;
70332;SDS011;57747;43.548;-5.704;2023-06-10T14:32:41;2.42;;;1.00;;
70332;SDS011;57747;43.548;-5.704;2023-06-10T14:35:06;1.73;;;0.68;;
70332;SDS011;57747;43.548;-5.704;2023-06-10T14:37:32;3.63;;;0.95;;
70332;SDS011;57747;43.548;-5.704;2023-06-10T14:39:57;1.23;;;0.55;;
70332;SDS011;57747;43.548;-5.704;2023-06-10T14:42:22;2.10;;;0.77;;
70332;SDS011;57747;43.548;-5.704;2023-06-10T14:44:48;1.45;;;0.60;;
70332;SDS011;57747;43.548;-5.704;2023-06-10T14:47:14;2.08;;;0.70;;
70332;SDS011;57747;43.548;-5.704;2023-06-10T14:49:40;1.65;;;0.60;;